createdAt,value
2019-01-04T00:02:04.980Z,23.50
2019-01-04T00:04:34.618Z,23.63
2019-01-04T00:07:04.550Z,25.10
2019-01-04T00:09:34.258Z,23.80
2019-01-04T00:12:04.112Z,23.37
2019-01-04T00:14:34.022Z,23.17
2019-01-04T00:17:03.862Z,21.97
2019-01-04T00:19:33.584Z,21.90
2019-01-04T00:22:03.308Z,21.60
2019-01-04T00:24:33.946Z,22.67
2019-01-04T00:27:03.800Z,21.80
2019-01-04T00:29:33.720Z,21.30
2019-01-04T00:32:03.437Z,19.43
2019-01-04T00:34:33.364Z,19.40
2019-01-04T00:37:04.455Z,19.17
2019-01-04T00:39:34.065Z,18.33
2019-01-04T00:42:03.882Z,19.20
2019-01-04T00:44:33.715Z,18.30
2019-01-04T00:47:03.491Z,17.53
2019-01-04T00:49:33.272Z,17.20
2019-01-04T00:52:03.200Z,17.87
2019-01-04T00:54:33.143Z,16.33
2019-01-04T00:57:23.155Z,16.53
2019-01-04T01:00:38.801Z,15.97
2019-01-04T01:04:10.568Z,15.73
2019-01-04T01:07:35.653Z,15.13
2019-01-04T01:10:40.694Z,14.90
2019-01-04T01:14:06.590Z,14.53
2019-01-04T01:17:16.025Z,14.20
2019-01-04T01:20:18.942Z,14.07
2019-01-04T01:23:24.360Z,13.67
2019-01-04T01:26:22.130Z,13.40
2019-01-04T01:29:24.087Z,12.90
2019-01-04T01:32:29.539Z,11.80
2019-01-04T01:35:27.442Z,12.87
2019-01-04T01:38:33.574Z,11.30
2019-01-04T01:42:06.733Z,11.23
2019-01-04T01:45:15.228Z,11.80
2019-01-04T01:47:51.449Z,10.50
2019-01-04T01:51:03.815Z,12.30
2019-01-04T01:53:44.640Z,10.87
2019-01-04T01:56:14.339Z,10.17
2019-01-04T01:58:44.188Z,9.67
2019-01-04T02:01:14.148Z,9.57
2019-01-04T02:03:43.855Z,10.27
2019-01-04T02:06:13.660Z,9.40
2019-01-04T02:08:43.630Z,9.33
2019-01-04T02:11:13.620Z,8.57
2019-01-04T02:13:43.253Z,8.80
2019-01-04T02:16:12.892Z,8.20
2019-01-04T02:18:42.727Z,8.20
2019-01-04T02:21:12.538Z,8.50
2019-01-04T02:23:42.268Z,7.90
2019-01-04T02:26:13.180Z,7.90
2019-01-04T02:28:42.631Z,8.63
2019-01-04T02:31:31.209Z,7.57
2019-01-04T02:34:03.167Z,7.30
2019-01-04T02:36:33.119Z,7.50
2019-01-04T02:39:03.740Z,6.90
2019-01-04T02:41:33.413Z,6.83
2019-01-04T02:44:03.191Z,7.47
2019-01-04T02:46:33.032Z,6.00
2019-01-04T02:49:02.854Z,7.03
2019-01-04T02:51:35.105Z,6.37
2019-01-04T02:54:04.969Z,6.60
2019-01-04T02:56:39.136Z,6.43
2019-01-04T02:59:08.805Z,6.83
2019-01-04T03:01:38.575Z,7.13
2019-01-04T03:04:08.177Z,6.00
2019-01-04T03:06:39.326Z,6.40
2019-01-04T03:09:09.050Z,6.70
2019-01-04T03:11:38.819Z,6.57
2019-01-04T03:14:10.969Z,5.40
2019-01-04T03:16:40.805Z,5.67
2019-01-04T03:19:10.411Z,6.40
2019-01-04T03:21:40.363Z,5.80
2019-01-04T03:24:10.082Z,5.60
2019-01-04T03:26:39.837Z,5.60
2019-01-04T03:29:09.440Z,5.67
2019-01-04T03:31:39.377Z,5.70
2019-01-04T03:34:09.214Z,5.17
2019-01-04T03:36:40.355Z,5.43
2019-01-04T03:39:09.867Z,5.63
2019-01-04T03:41:39.628Z,5.43
2019-01-04T03:44:09.542Z,5.67
2019-01-04T03:46:39.381Z,5.17
2019-01-04T03:49:09.293Z,5.17
2019-01-04T03:51:39.037Z,4.47
2019-01-04T03:54:09.857Z,4.83
2019-01-04T03:56:39.746Z,5.33
2019-01-04T03:59:09.648Z,4.90
2019-01-04T04:01:39.594Z,4.83
2019-01-04T04:04:10.292Z,4.80
2019-01-04T04:06:40.172Z,5.00
2019-01-04T04:09:10.097Z,5.27
2019-01-04T04:11:39.723Z,4.87
2019-01-04T04:14:09.444Z,5.40
2019-01-04T04:16:39.262Z,4.50
2019-01-04T04:19:16.479Z,5.40
2019-01-04T04:21:46.314Z,5.13
2019-01-04T04:24:17.369Z,4.70
2019-01-04T04:26:47.081Z,5.50
2019-01-04T04:29:16.906Z,7.50
2019-01-04T04:31:46.537Z,7.33
2019-01-04T04:34:16.356Z,7.70
2019-01-04T04:36:46.187Z,10.37
2019-01-04T04:39:15.931Z,11.33
2019-01-04T04:41:46.655Z,10.87
2019-01-04T04:44:16.323Z,13.27
2019-01-04T04:46:46.249Z,12.67
2019-01-04T04:49:15.976Z,15.20
2019-01-04T04:51:45.807Z,15.50
2019-01-04T04:54:15.619Z,17.07
2019-01-04T04:56:47.112Z,16.73
2019-01-04T04:59:16.702Z,18.00
2019-01-04T05:01:46.535Z,18.87
2019-01-04T05:04:16.363Z,10.73
2019-01-04T05:06:46.193Z,11.00
2019-01-04T05:09:16.026Z,10.90
2019-01-04T05:11:45.844Z,8.27
2019-01-04T05:14:15.347Z,9.50
2019-01-04T05:16:44.725Z,7.60
2019-01-04T05:19:14.139Z,8.07
2019-01-04T05:21:43.545Z,8.70
2019-01-04T05:24:12.945Z,7.93
2019-01-04T05:26:42.350Z,7.63
2019-01-04T05:29:11.753Z,8.00
2019-01-04T05:31:41.138Z,7.63
2019-01-04T05:34:10.524Z,6.90
2019-01-04T05:36:39.911Z,6.43
2019-01-04T05:39:09.284Z,7.13
2019-01-04T05:41:38.758Z,6.67
2019-01-04T05:44:08.144Z,7.20
2019-01-04T05:46:37.536Z,6.73
2019-01-04T05:49:06.912Z,7.07
2019-01-04T05:51:38.543Z,7.30
2019-01-04T05:54:07.928Z,8.27
2019-01-04T05:56:37.317Z,8.00
2019-01-04T05:59:06.765Z,7.27
2019-01-04T06:01:36.095Z,7.40
2019-01-04T06:04:05.513Z,7.00
2019-01-04T06:06:34.923Z,6.33
2019-01-04T06:09:05.898Z,7.13
2019-01-04T06:11:35.284Z,8.00
2019-01-04T06:14:04.685Z,7.77
2019-01-04T06:16:34.078Z,8.60
2019-01-04T06:19:03.480Z,9.50
2019-01-04T06:21:32.867Z,8.17
2019-01-04T06:24:02.270Z,7.83
2019-01-04T06:26:31.681Z,8.30
2019-01-04T06:29:01.072Z,7.67
2019-01-04T06:31:30.460Z,7.63
2019-01-04T06:33:59.860Z,8.33
2019-01-04T06:36:29.264Z,7.77
2019-01-04T06:38:58.685Z,8.97
2019-01-04T06:41:28.068Z,7.90
2019-01-04T06:43:57.458Z,7.73
2019-01-04T06:46:26.849Z,8.17
2019-01-04T06:48:56.489Z,8.73
2019-01-04T06:51:27.991Z,8.27
2019-01-04T06:53:56.925Z,9.20
2019-01-04T06:56:26.315Z,8.60
2019-01-04T06:58:55.739Z,9.23
2019-01-04T07:01:25.144Z,8.30
2019-01-04T07:03:54.576Z,8.57
2019-01-04T07:06:24.079Z,9.30
2019-01-04T07:08:53.593Z,11.20
2019-01-04T07:11:23.008Z,9.27
2019-01-04T07:13:52.417Z,8.20
2019-01-04T07:16:21.831Z,9.60
2019-01-04T07:18:51.228Z,9.07
2019-01-04T07:21:20.642Z,9.77
2019-01-04T07:23:50.042Z,9.10
2019-01-04T07:26:19.441Z,8.77
2019-01-04T07:28:48.850Z,9.20
2019-01-04T07:31:18.225Z,9.93
2019-01-04T07:33:47.632Z,9.90
2019-01-04T07:36:17.059Z,9.57
2019-01-04T07:38:46.443Z,9.90
2019-01-04T07:41:15.860Z,9.53
2019-01-04T07:43:45.272Z,9.47
2019-01-04T07:46:15.889Z,10.40
2019-01-04T07:48:45.267Z,10.73
2019-01-04T07:51:14.663Z,11.43
2019-01-04T07:53:45.377Z,11.37
2019-01-04T07:56:14.789Z,13.13
2019-01-04T07:58:44.163Z,15.33
2019-01-04T08:01:13.564Z,13.27
2019-01-04T08:03:42.955Z,12.60
2019-01-04T08:06:12.342Z,14.30
2019-01-04T08:08:41.752Z,11.20
2019-01-04T08:11:11.146Z,11.60
2019-01-04T08:13:40.530Z,12.70
2019-01-04T08:16:11.169Z,12.23
2019-01-04T08:18:40.569Z,12.87
2019-01-04T08:21:09.952Z,17.13
2019-01-04T08:23:39.457Z,13.17
2019-01-04T08:26:08.894Z,10.80
2019-01-04T08:28:38.368Z,10.10
2019-01-04T08:31:08.870Z,9.83
2019-01-04T08:33:38.357Z,9.40
2019-01-04T08:36:08.222Z,9.83
2019-01-04T08:38:37.937Z,10.00
2019-01-04T08:41:07.591Z,9.40
2019-01-04T08:43:36.922Z,9.90
2019-01-04T08:46:06.317Z,10.30
2019-01-04T08:48:37.999Z,11.13
2019-01-04T08:51:07.420Z,9.27
2019-01-04T08:54:02.812Z,9.40
2019-01-04T08:56:34.678Z,9.60
2019-01-04T08:59:05.252Z,9.40
2019-01-04T09:01:35.934Z,9.07
2019-01-04T09:04:05.330Z,9.87
2019-01-04T09:06:34.758Z,9.50
2019-01-04T09:09:07.473Z,9.93
2019-01-04T09:11:36.903Z,9.80
2019-01-04T09:14:06.300Z,9.40
2019-01-04T09:16:35.717Z,9.03
2019-01-04T09:19:05.130Z,9.50
2019-01-04T09:21:34.508Z,8.40
2019-01-04T09:24:03.938Z,9.90
2019-01-04T09:26:33.446Z,9.60
2019-01-04T09:29:04.805Z,9.27
2019-01-04T09:31:33.893Z,9.13
2019-01-04T09:34:03.322Z,9.60
2019-01-04T09:36:34.006Z,9.10
2019-01-04T09:39:03.530Z,9.00
2019-01-04T09:41:35.500Z,9.87
2019-01-04T09:44:04.919Z,10.60
2019-01-04T09:46:34.336Z,9.90
2019-01-04T09:49:03.738Z,9.43
2019-01-04T09:51:33.144Z,9.53
2019-01-04T09:54:02.550Z,10.63
2019-01-04T09:56:31.963Z,9.20
2019-01-04T09:59:01.429Z,9.60
2019-01-04T10:01:30.843Z,10.10
2019-01-04T10:04:01.813Z,10.13
2019-01-04T10:06:33.052Z,9.80
2019-01-04T10:09:06.631Z,9.57
2019-01-04T10:11:37.832Z,9.37
2019-01-04T10:14:07.225Z,9.43
2019-01-04T10:16:36.632Z,9.20
2019-01-04T10:19:06.060Z,10.23
2019-01-04T10:21:35.445Z,9.60
2019-01-04T10:24:04.884Z,9.37
2019-01-04T10:26:34.307Z,9.80
2019-01-04T10:29:05.007Z,11.50
2019-01-04T10:31:34.518Z,10.87
2019-01-04T10:34:03.925Z,10.80
2019-01-04T10:36:33.355Z,10.73
2019-01-04T10:39:02.799Z,10.90
2019-01-04T10:41:32.223Z,10.33
2019-01-04T10:44:01.693Z,9.60
2019-01-04T10:46:31.091Z,10.70
2019-01-04T10:49:00.481Z,10.03
2019-01-04T10:51:29.893Z,9.83
2019-01-04T10:53:59.291Z,9.93
2019-01-04T10:56:28.706Z,10.30
2019-01-04T10:58:58.093Z,9.50
2019-01-04T11:01:27.674Z,8.67
2019-01-04T11:03:57.055Z,8.57
2019-01-04T11:06:26.471Z,10.07
2019-01-04T11:08:55.873Z,10.50
2019-01-04T11:11:25.280Z,10.30
2019-01-04T11:13:54.682Z,9.80
2019-01-04T11:16:24.088Z,10.70
2019-01-04T11:18:53.596Z,11.60
2019-01-04T11:21:23.013Z,10.70
2019-01-04T11:24:42.424Z,10.37
2019-01-04T11:27:39.469Z,10.07
2019-01-04T11:30:49.731Z,10.60
2019-01-04T11:34:00.574Z,9.90
2019-01-04T11:37:06.424Z,9.50
2019-01-04T11:40:14.135Z,8.40
2019-01-04T11:43:06.539Z,8.83
2019-01-04T11:45:55.275Z,8.33
2019-01-04T11:49:18.050Z,7.77
2019-01-04T11:52:15.295Z,8.13
2019-01-04T11:54:44.713Z,15.37
2019-01-04T11:57:14.137Z,15.30
2019-01-04T11:59:43.548Z,11.40
2019-01-04T12:02:12.969Z,10.50
2019-01-04T12:04:42.352Z,11.67
2019-01-04T12:07:11.819Z,11.60
2019-01-04T12:09:41.233Z,13.90
2019-01-04T12:12:10.669Z,11.87
2019-01-04T12:14:41.458Z,9.90
2019-01-04T12:17:11.169Z,9.43
2019-01-04T12:19:40.632Z,9.77
2019-01-04T12:22:10.032Z,10.23
2019-01-04T12:24:40.421Z,11.10
2019-01-04T12:27:11.074Z,9.30
2019-01-04T12:29:40.428Z,10.17
2019-01-04T12:32:09.836Z,11.00
2019-01-04T12:34:39.251Z,10.90
2019-01-04T12:37:08.680Z,10.43
2019-01-04T12:39:38.103Z,10.47
2019-01-04T12:42:07.499Z,10.60
2019-01-04T12:44:36.918Z,10.97
2019-01-04T12:47:06.344Z,9.83
2019-01-04T12:49:35.769Z,11.83
2019-01-04T12:52:05.176Z,9.63
2019-01-04T12:54:35.606Z,11.77
2019-01-04T12:57:05.003Z,12.23
2019-01-04T12:59:34.409Z,11.80
2019-01-04T13:02:03.811Z,10.30
2019-01-04T13:04:33.366Z,12.50
2019-01-04T13:07:04.358Z,12.70
2019-01-04T13:09:33.777Z,23.80
2019-01-04T13:12:04.498Z,15.70
2019-01-04T13:14:33.912Z,14.13
2019-01-04T13:17:03.363Z,12.83
2019-01-04T13:19:32.766Z,11.73
2019-01-04T13:22:02.196Z,14.13
2019-01-04T13:24:31.629Z,13.90
2019-01-04T13:27:01.144Z,14.47
2019-01-04T13:29:30.587Z,15.57
2019-01-04T13:32:00.003Z,15.77
2019-01-04T13:34:29.422Z,15.13
2019-01-04T13:37:00.241Z,12.47
2019-01-04T13:39:29.665Z,11.97
2019-01-04T13:41:59.098Z,13.07
2019-01-04T13:44:29.996Z,13.47
2019-01-04T13:46:59.333Z,14.07
2019-01-04T13:49:28.758Z,11.33
2019-01-04T13:51:58.149Z,11.70
2019-01-04T13:54:27.562Z,11.30
2019-01-04T13:56:56.987Z,12.90
2019-01-04T13:59:26.400Z,13.40
2019-01-04T14:01:55.799Z,15.00
2019-01-04T14:04:25.208Z,16.00
2019-01-04T14:06:54.632Z,15.27
2019-01-04T14:09:24.036Z,16.10
2019-01-04T14:11:56.455Z,17.10
2019-01-04T14:14:25.865Z,18.00
2019-01-04T14:16:55.284Z,16.50
2019-01-04T14:19:24.788Z,15.77
2019-01-04T14:21:54.207Z,14.77
2019-01-04T14:24:23.623Z,14.23
2019-01-04T14:26:53.025Z,15.27
2019-01-04T14:29:22.438Z,15.63
2019-01-04T14:31:51.849Z,16.70
2019-01-04T14:34:21.249Z,17.97
2019-01-04T14:36:50.738Z,17.00
2019-01-04T14:39:20.179Z,33.53
2019-01-04T14:41:49.584Z,17.90
2019-01-04T14:44:18.988Z,15.87
2019-01-04T14:46:50.703Z,15.37
2019-01-04T14:49:22.404Z,15.37
2019-01-04T14:51:51.868Z,16.40
2019-01-04T14:54:21.280Z,18.87
2019-01-04T14:56:50.690Z,14.63
2019-01-04T14:59:20.077Z,14.90
2019-01-04T15:01:49.490Z,17.70
2019-01-04T15:04:18.987Z,17.40
2019-01-04T15:06:48.413Z,18.97
2019-01-04T15:09:17.976Z,22.00
2019-01-04T15:11:47.373Z,26.60
2019-01-04T15:14:16.840Z,27.00
2019-01-04T15:16:46.256Z,28.77
2019-01-04T15:19:15.784Z,27.60
2019-01-04T15:21:47.284Z,26.03
2019-01-04T15:24:16.790Z,24.73
2019-01-04T15:26:46.224Z,21.37
2019-01-04T15:29:15.681Z,20.27
2019-01-04T15:31:45.278Z,24.40
2019-01-04T15:34:14.798Z,19.13
2019-01-04T15:36:44.256Z,19.90
2019-01-04T15:39:13.694Z,19.13
2019-01-04T15:41:43.144Z,21.23
2019-01-04T15:44:12.678Z,19.30
2019-01-04T15:46:42.086Z,20.40
2019-01-04T15:49:11.614Z,37.27
2019-01-04T15:51:41.018Z,17.67
2019-01-04T15:54:10.440Z,15.27
2019-01-04T15:56:39.837Z,15.87
2019-01-04T15:59:09.383Z,16.63
2019-01-04T16:01:40.869Z,15.77
2019-01-04T16:04:10.281Z,15.70
2019-01-04T16:06:39.741Z,15.40
2019-01-04T16:09:09.161Z,16.23
2019-01-04T16:11:38.569Z,19.60
2019-01-04T16:14:09.048Z,18.73
2019-01-04T16:16:38.520Z,19.90
2019-01-04T16:19:07.950Z,19.73
2019-01-04T16:21:37.401Z,21.47
2019-01-04T16:24:06.944Z,45.57
2019-01-04T16:26:36.515Z,29.20
2019-01-04T16:29:05.949Z,23.90
2019-01-04T16:31:35.442Z,20.23
2019-01-04T16:34:06.542Z,19.67
2019-01-04T16:36:35.974Z,19.30
2019-01-04T16:39:08.102Z,18.00
2019-01-04T16:41:37.529Z,17.40
2019-01-04T16:44:07.304Z,16.37
2019-01-04T16:46:36.955Z,18.17
2019-01-04T16:49:06.450Z,17.00
2019-01-04T16:51:35.860Z,18.87
2019-01-04T16:54:06.668Z,17.53
2019-01-04T16:56:36.071Z,20.53
2019-01-04T16:59:05.582Z,22.20
2019-01-04T17:01:37.259Z,22.23
2019-01-04T17:04:06.781Z,21.80
2019-01-04T17:06:36.285Z,23.80
2019-01-04T17:09:08.261Z,23.67
2019-01-04T17:11:37.756Z,23.50
2019-01-04T17:14:07.158Z,22.03
2019-01-04T17:16:37.802Z,20.20
2019-01-04T17:19:07.278Z,20.57
2019-01-04T17:21:36.690Z,20.33
2019-01-04T17:24:06.090Z,20.57
2019-01-04T17:26:35.532Z,19.63
2019-01-04T17:29:04.969Z,20.20
2019-01-04T17:31:34.416Z,18.80
2019-01-04T17:34:03.898Z,20.10
2019-01-04T17:36:33.342Z,19.70
2019-01-04T17:39:03.047Z,19.47
2019-01-04T17:41:32.473Z,21.47
2019-01-04T17:44:01.974Z,21.43
2019-01-04T17:46:31.376Z,22.00
2019-01-04T17:49:00.815Z,22.33
2019-01-04T17:51:30.271Z,23.90
2019-01-04T17:53:59.803Z,22.30
2019-01-04T17:56:29.235Z,21.10
2019-01-04T17:58:58.926Z,19.47
2019-01-04T18:01:28.647Z,17.30
2019-01-04T18:03:58.224Z,20.90
2019-01-04T18:06:28.777Z,18.70
2019-01-04T18:08:58.682Z,17.73
2019-01-04T18:11:28.396Z,18.20
2019-01-04T18:13:58.230Z,17.50
2019-01-04T18:16:28.018Z,18.17
2019-01-04T18:18:57.889Z,17.03
2019-01-04T18:21:27.710Z,18.47
2019-01-04T18:23:57.428Z,20.10
2019-01-04T18:26:27.256Z,20.10
2019-01-04T18:28:56.995Z,23.23
2019-01-04T18:31:26.426Z,21.77
2019-01-04T18:33:57.942Z,18.97
2019-01-04T18:36:27.710Z,18.80
2019-01-04T18:38:57.476Z,17.50
2019-01-04T18:41:27.156Z,17.27
2019-01-04T18:43:57.143Z,16.40
2019-01-04T18:46:26.698Z,17.70
2019-01-04T18:48:57.343Z,17.80
2019-01-04T18:51:27.169Z,15.73
2019-01-04T18:53:57.111Z,15.43
2019-01-04T18:56:26.941Z,15.53
2019-01-04T18:58:56.678Z,14.70
2019-01-04T19:01:26.376Z,14.03
2019-01-04T19:03:56.332Z,13.50
2019-01-04T19:06:31.112Z,13.10
2019-01-04T19:08:57.821Z,12.97
2019-01-04T19:11:27.664Z,13.70
2019-01-04T19:13:57.077Z,15.40
2019-01-04T19:16:29.281Z,12.50
2019-01-04T19:18:58.754Z,11.90
2019-01-04T19:21:28.187Z,12.07
2019-01-04T19:23:58.044Z,11.77
2019-01-04T19:26:27.859Z,11.10
2019-01-04T19:28:57.694Z,11.13
2019-01-04T19:31:28.608Z,10.20
2019-01-04T19:33:58.037Z,10.73
2019-01-04T19:36:27.476Z,9.53
2019-01-04T19:38:57.316Z,13.10
2019-01-04T19:41:27.154Z,11.33
2019-01-04T19:43:58.777Z,10.10
2019-01-04T19:46:28.419Z,10.10
2019-01-04T19:48:58.053Z,9.87
2019-01-04T19:51:27.708Z,10.00
2019-01-04T19:53:59.118Z,9.60
2019-01-04T19:56:28.883Z,9.80
2019-01-04T19:58:58.688Z,10.03
2019-01-04T20:01:28.659Z,9.43
2019-01-04T20:03:58.473Z,9.20
2019-01-04T20:07:29.695Z,8.53
2019-01-04T20:11:38.774Z,9.13
2019-01-04T20:15:12.859Z,8.40
2019-01-04T20:18:07.291Z,14.20
2019-01-04T20:21:03.166Z,14.93
2019-01-04T20:23:50.961Z,15.87
2019-01-04T20:26:47.024Z,15.70
2019-01-04T20:29:34.599Z,18.30
2019-01-04T20:32:26.101Z,18.03
2019-01-04T20:35:13.711Z,19.60
2019-01-04T20:38:05.329Z,20.90
2019-01-04T20:40:54.050Z,20.67
2019-01-04T20:43:36.635Z,21.37
2019-01-04T20:46:21.430Z,22.63
2019-01-04T20:49:13.148Z,24.13
2019-01-04T20:52:14.167Z,23.27
2019-01-04T20:55:02.874Z,22.60
2019-01-04T20:57:54.004Z,24.97
2019-01-04T21:00:51.851Z,24.60
2019-01-04T21:03:40.352Z,30.00
2019-01-04T21:06:28.952Z,38.50
2019-01-04T21:09:15.966Z,38.50
2019-01-04T21:12:04.651Z,40.10
2019-01-04T21:14:51.966Z,43.23
2019-01-04T21:17:39.847Z,45.83
2019-01-04T21:20:35.603Z,48.20
2019-01-04T21:23:23.156Z,50.77
2019-01-04T21:26:23.779Z,51.30
2019-01-04T21:29:12.482Z,55.67
2019-01-04T21:32:00.395Z,56.47
2019-01-04T21:34:47.770Z,58.53
2019-01-04T21:37:39.306Z,57.07
2019-01-04T21:40:26.896Z,59.50
2019-01-04T21:43:30.937Z,59.43
2019-01-04T21:46:18.582Z,64.50
2019-01-04T21:49:19.568Z,64.83
2019-01-04T21:52:20.279Z,67.53
2019-01-04T21:55:10.004Z,66.70
2019-01-04T21:57:57.485Z,67.97
2019-01-04T22:00:40.761Z,65.37
2019-01-04T22:03:35.528Z,66.97
2019-01-04T22:06:27.250Z,68.60
2019-01-04T22:09:21.779Z,65.53
2019-01-04T22:12:13.412Z,69.27
2019-01-04T22:15:20.376Z,68.93
2019-01-04T22:18:07.877Z,66.60
2019-01-04T22:20:55.293Z,66.70
2019-01-04T22:23:33.161Z,70.97
2019-01-04T22:26:20.306Z,66.40
2019-01-04T22:29:15.374Z,61.03
2019-01-04T22:32:10.292Z,60.90
2019-01-04T22:35:00.828Z,62.47
2019-01-04T22:37:58.436Z,61.80
2019-01-04T22:40:53.152Z,65.20
2019-01-04T22:43:40.416Z,65.43
2019-01-04T22:46:38.767Z,64.10
2019-01-04T22:49:26.157Z,62.30
2019-01-04T22:52:14.485Z,63.63
2019-01-04T22:55:13.446Z,62.30
2019-01-04T22:58:14.272Z,65.00
2019-01-04T23:01:12.203Z,67.83
2019-01-04T23:03:59.787Z,63.50
2019-01-04T23:07:00.531Z,62.23
2019-01-04T23:09:55.150Z,62.27
2019-01-04T23:13:01.857Z,62.57
2019-01-04T23:15:48.729Z,61.20
2019-01-04T23:18:45.957Z,59.20
2019-01-04T23:22:07.382Z,58.97
2019-01-04T23:25:02.283Z,59.47
2019-01-04T23:27:56.982Z,60.67
2019-01-04T23:30:51.844Z,57.27
2019-01-04T23:33:39.150Z,55.93
2019-01-04T23:36:41.734Z,55.33
2019-01-04T23:39:42.141Z,52.40
2019-01-04T23:42:36.818Z,53.90
2019-01-04T23:45:25.872Z,50.53
2019-01-04T23:48:29.386Z,49.63
2019-01-04T23:51:17.999Z,49.43
2019-01-04T23:54:18.457Z,45.97
2019-01-04T23:57:16.013Z,45.30
